Hlavní strana
METAR-TAF:

METAR-TAF

Letiště :

Káhira, Egypt

Mezinárodní letiště Káhira

zeměpisná šířka: 30-08N, zeměpisná délka: 031-24E, výška: 64 m

Aktuální stav počasí

Zpráva byla vytvořena před 38 minutami, v 21:00 UTC
Jihozápadní vítr 20 kt
Teplota 18°C
Vlhkost vzduchu 49%
Tlak 1012 hPa
Viditelnost 10 km a více
Žádná oblačnost pod 1500 m, nevyskytují se cumulonimby.

METAR: HECA 222100Z 22020KT CAVOK 18/07 Q1012 NOSIG

Čas: 23:38 (21:38 UTC)

Předpověď počasí

Zpráva byla vytvořena před 4 hodinami a 38 minutami, v 17:00 UTC
Předpověď platná od 22 v 18 UTC do 23 v 24 UTC
Západojihozápadní vítr 8 kt s nárazy do 18 kt
Viditelnost: 6000 m
Oblačno až skoro zataženo ve výšce 2500 ft
Dočasný
od 23 v 00 UTC do 23 v 06 UTC
Viditelnost: 3000 m
písek
Změna
od 23 v 13 UTC do 23 v 15 UTC
Západoseverozápadní vítr 11 kt
Viditelnost 10 km a více
Polojasno ve výšce 2500 ft

TAF: HECA 221700Z 2218/2324 24008G18KT 6000 BKN025 PORB30 TEMPO 2300/2306 3000 SA BECMG 2313/2315 29011KT 9999 SCT025

Stav a předpovědi počasí z více než 4 000 letišť (zprávy METAR a TAF).

Červené a žluté tečky na mapě představují dostupné meteorologické stanice.

Když kurzor umístíte na tečku, zobrazí se název stanice.

Pak kliknutím zobrazíte stav a předpověď počasí.

Chcete-li změnit mapu, kliknutím na zelené tlačítko se znaménkem +mapu přiblížíte, kliknutím na zelené tlačítko se znaménkem – mapu oddálíte a kliknutím na zelené šipky přejdete na sousední mapy.


METAR-TAF: